Time;durP1;ratioP1;P1;durP2;ratioP2;P2;SDS_P1;SDS_P2;PMS_P1;PMS_P2;Temp;Humidity;BMP_temperature;BMP_pressure;BME280_temperature;BME280_humidity;BME280_pressure;Samples;Min_cycle;Max_cycle;Signal;HPM_P1;HPM_P2
2023/07/23 00:01:30;;;;;;;12.48;6.45;;;;;;;26.34;100.00;98114.19;4840903;29;20052;-69
2023/07/23 00:03:59;;;;;;;7.28;5.65;;;;;;;26.33;100.00;98106.34;4830412;29;20624;-68
2023/07/23 00:06:29;;;;;;;6.70;5.85;;;;;;;26.36;100.00;98111.16;4811213;29;20087;-68
2023/07/23 00:08:59;;;;;;;7.43;6.72;;;;;;;26.32;100.00;98100.13;4828886;29;20137;-69
2023/07/23 00:11:29;;;;;;;10.68;6.80;;;;;;;26.30;100.00;98106.94;4809369;29;20054;-69
2023/07/23 00:13:59;;;;;;;7.43;6.70;;;;;;;26.31;100.00;98100.41;4839404;29;20642;-69
2023/07/23 00:16:28;;;;;;;9.15;7.28;;;;;;;26.36;100.00;98111.97;4822785;29;20473;-69
2023/07/23 00:18:57;;;;;;;8.80;7.35;;;;;;;26.31;100.00;98103.13;4798084;29;20045;-69
2023/07/23 00:21:27;;;;;;;9.85;8.10;;;;;;;26.34;100.00;98105.22;4839269;29;20441;-69
2023/07/23 00:23:56;;;;;;;9.40;8.35;;;;;;;26.40;100.00;98109.44;4821313;29;20061;-68
2023/07/23 00:26:28;;;;;;;9.82;8.52;;;;;;;26.39;100.00;98113.25;4821603;29;20053;-68
2023/07/23 00:28:58;;;;;;;10.73;8.48;;;;;;;26.41;100.00;98115.66;4822159;29;20045;-68
2023/07/23 00:31:29;;;;;;;8.93;7.35;;;;;;;26.40;100.00;98123.00;4836813;29;20045;-69
2023/07/23 00:33:59;;;;;;;12.05;8.38;;;;;;;26.44;100.00;98129.41;4839118;29;20076;-69
2023/07/23 00:36:28;;;;;;;11.30;9.02;;;;;;;26.46;100.00;98127.22;4823788;29;20069;-68
2023/07/23 00:39:02;;;;;;;10.15;8.50;;;;;;;26.49;100.00;98125.78;4835984;29;20486;-67
2023/07/23 00:41:33;;;;;;;10.00;7.60;;;;;;;26.50;100.00;98124.66;4836718;29;20046;-67
2023/07/23 00:44:03;;;;;;;11.73;9.57;;;;;;;26.51;100.00;98118.91;4840810;29;20052;-67
2023/07/23 00:46:33;;;;;;;9.18;8.18;;;;;;;26.54;100.00;98117.50;4837276;29;20490;-67
2023/07/23 00:49:07;;;;;;;10.77;8.27;;;;;;;26.64;100.00;98114.53;4808385;29;20053;-67
2023/07/23 00:51:37;;;;;;;8.38;7.53;;;;;;;26.64;100.00;98118.03;4822819;29;20662;-68
2023/07/23 00:54:07;;;;;;;8.70;7.72;;;;;;;26.69;100.00;98117.09;4829782;29;20093;-67
2023/07/23 00:56:40;;;;;;;8.65;7.38;;;;;;;26.78;100.00;98126.91;4823888;29;20052;-70
2023/07/23 00:59:10;;;;;;;8.43;7.18;;;;;;;26.84;100.00;98116.72;4808654;29;20046;-68
2023/07/23 01:01:40;;;;;;;8.18;6.90;;;;;;;26.89;100.00;98130.19;4818148;29;20060;-68
2023/07/23 01:04:09;;;;;;;8.38;6.93;;;;;;;26.94;100.00;98123.81;4839350;29;20045;-68
2023/07/23 01:06:39;;;;;;;10.65;8.20;;;;;;;26.99;100.00;98118.25;4841174;29;20045;-68
2023/07/23 01:09:10;;;;;;;10.00;6.88;;;;;;;26.97;100.00;98115.03;4841899;29;20049;-68
2023/07/23 01:11:40;;;;;;;9.18;6.28;;;;;;;27.09;100.00;98139.72;4817518;29;20058;-68
2023/07/23 01:14:10;;;;;;;8.23;6.18;;;;;;;27.13;100.00;98127.88;4837840;29;20083;-68
2023/07/23 01:16:40;;;;;;;8.07;6.30;;;;;;;27.18;100.00;98132.38;4825799;29;20141;-68
2023/07/23 01:19:15;;;;;;;7.20;6.15;;;;;;;27.19;100.00;98128.56;4825157;29;20054;-68
2023/07/23 01:21:44;;;;;;;7.30;5.75;;;;;;;27.24;100.00;98125.69;4825576;29;20370;-68
2023/07/23 01:24:14;;;;;;;7.05;5.95;;;;;;;27.32;100.00;98124.91;4844968;29;20722;-68
2023/07/23 01:26:43;;;;;;;9.10;6.50;;;;;;;27.39;100.00;98124.47;4824606;29;20564;-68
2023/07/23 01:29:13;;;;;;;7.03;5.60;;;;;;;27.45;100.00;98128.63;4832885;29;20074;-69
2023/07/23 01:31:42;;;;;;;6.28;5.68;;;;;;;27.49;100.00;98148.69;4827505;29;20068;-68
2023/07/23 01:34:11;;;;;;;8.30;5.68;;;;;;;27.45;100.00;98140.31;4845213;29;20049;-68
2023/07/23 01:36:43;;;;;;;6.97;6.28;;;;;;;27.50;100.00;98159.25;4841364;29;20087;-68
2023/07/23 01:39:13;;;;;;;6.68;6.00;;;;;;;27.53;100.00;98158.63;4826921;29;20064;-68
2023/07/23 01:41:43;;;;;;;8.02;6.20;;;;;;;27.54;100.00;98156.69;4844422;29;20074;-68
2023/07/23 01:44:13;;;;;;;9.35;6.63;;;;;;;27.55;100.00;98170.00;4832018;29;20683;-68
2023/07/23 01:46:42;;;;;;;7.75;6.40;;;;;;;27.53;100.00;98161.34;4826573;29;20565;-68
2023/07/23 01:49:12;;;;;;;8.50;6.85;;;;;;;27.50;100.00;98151.09;4817620;29;20446;-68
2023/07/23 01:51:49;;;;;;;8.75;7.07;;;;;;;27.51;100.00;98158.16;4833983;29;20053;-68
2023/07/23 01:54:20;;;;;;;9.35;6.65;;;;;;;27.56;100.00;98155.28;4812716;29;20485;-68
2023/07/23 01:56:49;;;;;;;6.43;5.82;;;;;;;27.57;100.00;98156.84;4816228;29;20406;-67
2023/07/23 01:59:19;;;;;;;8.20;6.78;;;;;;;27.57;100.00;98148.69;4826011;29;20049;-68
2023/07/23 02:01:49;;;;;;;7.07;6.32;;;;;;;27.62;100.00;98154.00;4826870;29;20533;-67
2023/07/23 02:04:19;;;;;;;6.72;6.03;;;;;;;27.65;100.00;98156.09;4829854;29;20426;-67
2023/07/23 02:06:49;;;;;;;6.78;6.05;;;;;;;27.70;100.00;98158.66;4829201;29;20065;-67
2023/07/23 02:09:19;;;;;;;7.25;6.05;;;;;;;27.80;100.00;98168.44;4810438;29;20046;-68
2023/07/23 02:11:49;;;;;;;6.38;5.68;;;;;;;28.01;100.00;98172.19;4829881;29;20157;-68
2023/07/23 02:14:19;;;;;;;6.85;6.15;;;;;;;28.10;100.00;98170.25;4826589;29;20101;-68
2023/07/23 02:16:49;;;;;;;8.43;6.03;;;;;;;28.24;100.00;98170.13;4829669;29;20068;-68
2023/07/23 02:19:18;;;;;;;6.35;5.57;;;;;;;28.28;100.00;98167.56;4842669;29;20069;-68
2023/07/23 02:21:48;;;;;;;6.50;5.90;;;;;;;28.26;100.00;98188.88;4828546;29;20572;-68
2023/07/23 02:24:18;;;;;;;7.47;6.00;;;;;;;28.29;100.00;98185.50;4829075;29;20508;-68
2023/07/23 02:26:48;;;;;;;6.18;5.50;;;;;;;28.39;100.00;98191.44;4825741;29;20146;-68
2023/07/23 02:29:18;;;;;;;5.90;5.30;;;;;;;28.49;100.00;98188.41;4824761;29;20670;-68
2023/07/23 02:31:48;;;;;;;9.80;5.75;;;;;;;28.65;100.00;98194.13;4825603;29;20083;-68
2023/07/23 02:34:17;;;;;;;6.55;5.30;;;;;;;28.70;100.00;98185.00;4825086;29;20046;-68
2023/07/23 02:36:48;;;;;;;8.00;5.70;;;;;;;28.61;100.00;98176.81;4828337;29;20050;-67
2023/07/23 02:39:17;;;;;;;7.15;6.10;;;;;;;28.77;100.00;98185.31;4819016;29;20050;-68
2023/07/23 02:41:47;;;;;;;8.77;6.28;;;;;;;29.00;100.00;98195.69;4798163;29;20061;-67
2023/07/23 02:44:17;;;;;;;8.40;6.57;;;;;;;29.08;100.00;98191.34;4843447;29;20053;-68
2023/07/23 02:46:46;;;;;;;7.82;5.97;;;;;;;29.29;100.00;98186.81;4831017;29;20061;-69
2023/07/23 02:49:18;;;;;;;7.30;5.95;;;;;;;29.66;100.00;98190.66;4844590;29;20058;-68
2023/07/23 02:51:47;;;;;;;8.88;6.50;;;;;;;29.54;100.00;98185.09;4832427;29;20058;-68
2023/07/23 02:54:17;;;;;;;8.95;6.03;;;;;;;29.50;100.00;98180.63;4815290;29;20049;-68
2023/07/23 02:56:46;;;;;;;6.65;5.97;;;;;;;29.72;100.00;98196.72;4823973;29;20483;-68
2023/07/23 02:59:16;;;;;;;8.57;6.45;;;;;;;29.72;100.00;98191.25;4809142;29;20049;-67
2023/07/23 03:01:45;;;;;;;6.95;6.35;;;;;;;29.69;100.00;98181.00;4826707;29;20053;-69
2023/07/23 03:04:16;;;;;;;7.97;7.03;;;;;;;29.56;100.00;98195.69;4828021;29;20049;-69
2023/07/23 03:06:47;;;;;;;9.30;6.40;;;;;;;29.64;100.00;98189.38;4841917;29;20118;-69
2023/07/23 03:09:17;;;;;;;7.43;6.70;;;;;;;29.48;100.00;98194.59;4823806;29;20072;-68
2023/07/23 03:11:46;;;;;;;7.28;6.53;;;;;;;29.62;100.00;98191.63;4835022;29;20053;-68
2023/07/23 03:14:16;;;;;;;7.65;6.80;;;;;;;29.71;100.00;98185.00;4819720;29;20057;-69
2023/07/23 03:16:45;;;;;;;8.55;7.35;;;;;;;29.73;100.00;98187.41;4826798;29;20049;-69
2023/07/23 03:19:15;;;;;;;8.70;7.30;;;;;;;29.69;100.00;98186.47;4839650;29;20069;-68
2023/07/23 03:21:45;;;;;;;8.55;7.38;;;;;;;29.61;100.00;98190.06;4841227;29;20515;-69
2023/07/23 03:24:15;;;;;;;7.40;6.70;;;;;;;29.69;100.00;98198.19;4828296;29;20050;-69
2023/07/23 03:26:44;;;;;;;7.63;6.85;;;;;;;29.73;100.00;98201.88;4838878;29;20110;-67
2023/07/23 03:29:13;;;;;;;9.80;6.72;;;;;;;29.72;100.00;98188.53;4815343;29;20133;-67
2023/07/23 03:31:43;;;;;;;9.90;6.55;;;;;;;29.87;100.00;98199.69;4831938;29;20058;-68
2023/07/23 03:34:13;;;;;;;10.35;7.35;;;;;;;29.84;100.00;98200.34;4827916;29;20057;-68
2023/07/23 03:36:42;;;;;;;8.88;7.07;;;;;;;29.86;100.00;98194.56;4838625;29;20089;-68
2023/07/23 03:39:16;;;;;;;9.25;7.72;;;;;;;29.91;100.00;98199.88;4825301;29;20069;-68
2023/07/23 03:41:46;;;;;;;7.68;6.88;;;;;;;29.98;100.00;98202.88;4822643;29;20058;-68
2023/07/23 03:44:15;;;;;;;8.68;7.13;;;;;;;29.93;100.00;98203.06;4839245;29;20056;-68
2023/07/23 03:47:09;;;;;;;7.63;6.80;;;;;;;30.01;100.00;98207.66;4834854;29;20054;-68
2023/07/23 03:49:39;;;;;;;10.57;7.35;;;;;;;30.05;100.00;98208.59;4789966;29;20461;-68
2023/07/23 03:52:09;;;;;;;8.95;7.47;;;;;;;30.03;100.00;98208.13;4837009;29;20057;-67
2023/07/23 03:54:39;;;;;;;9.15;6.93;;;;;;;30.05;100.00;98208.59;4836379;29;20057;-68
2023/07/23 03:57:10;;;;;;;7.53;6.75;;;;;;;30.13;100.00;98201.50;4819378;29;20050;-68
2023/07/23 03:59:44;;;;;;;7.78;6.50;;;;;;;30.29;100.00;98202.47;4822161;29;20109;-68
2023/07/23 04:02:13;;;;;;;8.18;7.38;;;;;;;30.48;100.00;98208.31;4837967;29;20057;-67
2023/07/23 04:04:43;;;;;;;10.60;6.63;;;;;;;30.71;100.00;98195.84;4833310;29;20052;-67
2023/07/23 04:07:13;;;;;;;7.65;6.78;;;;;;;31.03;100.00;98207.94;4815369;29;20058;-67
2023/07/23 04:09:42;;;;;;;6.75;5.93;;;;;;;31.31;100.00;98212.81;4845814;29;20064;-67
2023/07/23 04:12:11;;;;;;;8.40;5.47;;;;;;;31.67;100.00;98212.88;4830493;29;20052;-68
2023/07/23 04:14:43;;;;;;;6.38;5.78;;;;;;;31.98;100.00;98213.06;4836778;29;20435;-67
2023/07/23 04:17:12;;;;;;;6.57;5.25;;;;;;;32.15;98.96;98208.50;4845687;29;20045;-68
2023/07/23 04:19:45;;;;;;;6.90;5.20;;;;;;;32.09;96.75;98227.91;4816118;29;20050;-68
2023/07/23 04:22:14;;;;;;;6.53;5.85;;;;;;;32.15;95.82;98223.00;4818219;29;20407;-67
2023/07/23 04:24:44;;;;;;;6.88;5.53;;;;;;;32.53;96.70;98223.34;4831102;29;20049;-67
2023/07/23 04:27:14;;;;;;;6.40;4.75;;;;;;;32.26;92.04;98223.34;4811177;29;20068;-68
2023/07/23 04:29:43;;;;;;;5.93;4.50;;;;;;;32.61;94.83;98227.13;4830187;29;20058;-67
2023/07/23 04:32:12;;;;;;;6.30;5.18;;;;;;;32.69;90.81;98228.94;4840125;29;20461;-68
2023/07/23 04:34:42;;;;;;;4.57;4.18;;;;;;;33.15;90.29;98221.97;4819255;29;20141;-68
2023/07/23 04:37:13;;;;;;;8.27;4.50;;;;;;;33.07;90.50;98219.38;4819496;29;20114;-68
2023/07/23 04:39:43;;;;;;;4.30;3.90;;;;;;;33.28;90.95;98222.72;4833659;29;20053;-68
2023/07/23 04:42:13;;;;;;;6.30;4.20;;;;;;;33.14;88.08;98225.06;4842505;29;20080;-69
2023/07/23 04:44:43;;;;;;;5.28;3.72;;;;;;;33.54;91.96;98223.00;4813703;29;20438;-67
2023/07/23 04:47:13;;;;;;;5.00;3.75;;;;;;;33.46;87.50;98221.19;4844071;29;20053;-68
2023/07/23 04:49:42;;;;;;;3.85;3.50;;;;;;;33.73;90.61;98223.06;4835725;29;20165;-68
2023/07/23 04:52:11;;;;;;;6.65;4.00;;;;;;;33.94;86.52;98216.50;4834701;29;20122;-68
2023/07/23 04:54:42;;;;;;;4.30;3.60;;;;;;;33.76;83.95;98222.38;4834747;29;20049;-70
2023/07/23 04:57:12;;;;;;;4.25;3.53;;;;;;;34.02;89.66;98223.75;4799937;29;20436;-69
2023/07/23 04:59:41;;;;;;;4.00;3.60;;;;;;;34.11;85.54;98216.09;4817632;29;20077;-69
2023/07/23 05:02:11;;;;;;;5.85;4.03;;;;;;;34.32;87.79;98219.34;4839447;29;20046;-70
2023/07/23 05:04:40;;;;;;;6.70;3.83;;;;;;;34.13;85.23;98214.59;4817433;29;20770;-68
2023/07/23 05:07:09;;;;;;;8.40;4.20;;;;;;;33.89;86.67;98220.31;4820017;29;20544;-69
2023/07/23 05:09:43;;;;;;;5.25;4.13;;;;;;;33.92;84.91;98216.84;4834791;29;20046;-69
2023/07/23 05:12:12;;;;;;;5.70;3.83;;;;;;;33.97;84.29;98207.53;4838729;29;20046;-70
2023/07/23 05:14:41;;;;;;;6.97;4.00;;;;;;;33.81;83.92;98218.56;4839807;29;20148;-70
2023/07/23 05:17:11;;;;;;;4.00;3.60;;;;;;;33.93;87.92;98212.16;4820123;29;20049;-70
2023/07/23 05:19:40;;;;;;;4.07;3.50;;;;;;;34.23;88.16;98208.56;4837169;29;20533;-70
2023/07/23 05:22:10;;;;;;;4.65;3.55;;;;;;;34.54;88.65;98207.63;4834998;29;20168;-70
2023/07/23 05:24:39;;;;;;;3.95;3.38;;;;;;;34.17;87.95;98209.19;4834424;29;20146;-69
2023/07/23 05:27:08;;;;;;;4.60;3.70;;;;;;;34.13;83.58;98203.59;4835836;29;20056;-69
2023/07/23 05:29:38;;;;;;;5.97;3.33;;;;;;;33.86;82.82;98203.75;4836317;29;20049;-70
2023/07/23 05:32:08;;;;;;;5.03;3.83;;;;;;;34.31;87.76;98198.50;4837587;29;20546;-70
2023/07/23 05:34:42;;;;;;;5.85;3.40;;;;;;;34.40;86.31;98206.53;4841398;29;20068;-70
2023/07/23 05:37:11;;;;;;;3.95;3.65;;;;;;;34.51;83.82;98197.38;4829661;29;20049;-70
2023/07/23 05:39:41;;;;;;;6.00;3.42;;;;;;;34.24;84.16;98199.16;4845776;29;20057;-71
2023/07/23 05:42:13;;;;;;;6.22;4.18;;;;;;;34.26;81.97;98196.03;4836283;29;20148;-70
2023/07/23 05:44:43;;;;;;;4.60;3.65;;;;;;;34.53;84.96;98186.78;4835024;29;20054;-70
2023/07/23 05:47:13;;;;;;;5.47;3.70;;;;;;;34.45;83.57;98193.31;4836361;29;20045;-70
2023/07/23 05:49:43;;;;;;;5.88;3.60;;;;;;;34.50;83.58;98194.97;4831647;29;20054;-67
2023/07/23 05:52:12;;;;;;;6.18;3.38;;;;;;;34.38;81.85;98197.88;4834693;29;20072;-67
2023/07/23 05:54:41;;;;;;;4.65;3.58;;;;;;;34.40;81.04;98190.84;4816621;29;20141;-67
2023/07/23 05:57:11;;;;;;;4.40;3.80;;;;;;;34.40;81.68;98188.09;4808047;29;20045;-67
2023/07/23 05:59:40;;;;;;;3.47;3.17;;;;;;;34.53;83.34;98184.03;4819627;29;20049;-68
2023/07/23 06:02:10;;;;;;;4.03;3.50;;;;;;;34.59;82.51;98188.09;4834629;29;20055;-67
2023/07/23 06:04:41;;;;;;;3.92;3.45;;;;;;;34.60;87.74;98184.19;4841136;29;20883;-67
2023/07/23 06:07:10;;;;;;;8.25;3.40;;;;;;;34.44;80.88;98180.69;4828652;29;20744;-67
2023/07/23 06:09:40;;;;;;;6.28;3.38;;;;;;;34.52;79.34;98181.66;4839533;29;20050;-66
2023/07/23 06:12:09;;;;;;;3.35;3.03;;;;;;;34.49;83.33;98174.13;4838658;29;20120;-67
2023/07/23 06:14:38;;;;;;;6.57;2.92;;;;;;;34.53;81.35;98172.22;4841264;29;20053;-67
2023/07/23 06:17:08;;;;;;;5.40;2.83;;;;;;;34.36;82.06;98178.16;4843026;29;20157;-67
2023/07/23 06:19:38;;;;;;;3.55;2.70;;;;;;;34.47;81.71;98173.69;4826985;29;20064;-67
2023/07/23 06:22:07;;;;;;;5.72;2.95;;;;;;;34.43;82.05;98170.09;4833914;29;20153;-69
2023/07/23 06:24:36;;;;;;;4.07;2.75;;;;;;;34.10;79.79;98174.06;4830664;29;20113;-67
2023/07/23 06:27:06;;;;;;;11.68;2.83;;;;;;;34.27;81.32;98157.19;4830120;29;20141;-67
2023/07/23 06:29:36;;;;;;;4.07;2.55;;;;;;;34.57;81.45;98151.88;4837538;29;20479;-66
2023/07/23 06:32:06;;;;;;;6.38;3.47;;;;;;;34.66;85.51;98157.97;4808243;29;20073;-66
2023/07/23 06:34:35;;;;;;;3.08;2.78;;;;;;;34.40;79.75;98152.31;4841919;29;20218;-67
2023/07/23 06:37:05;;;;;;;5.63;2.70;;;;;;;34.43;80.45;98153.56;4841560;29;20172;-68
2023/07/23 06:39:34;;;;;;;7.20;2.72;;;;;;;34.47;81.94;98151.69;4841550;29;20070;-67
2023/07/23 06:42:04;;;;;;;3.13;2.78;;;;;;;34.27;81.64;98142.63;4824909;29;20136;-65
2023/07/23 06:44:34;;;;;;;5.15;2.70;;;;;;;34.00;81.01;98138.09;4824682;29;20046;-69
2023/07/23 06:47:04;;;;;;;5.45;2.28;;;;;;;34.00;84.60;98138.09;4843091;29;20054;-67
2023/07/23 06:49:33;;;;;;;3.53;2.65;;;;;;;33.86;83.31;98135.06;4825036;29;20081;-65
2023/07/23 06:52:04;;;;;;;3.38;2.67;;;;;;;33.97;86.71;98131.38;4838400;29;20057;-68
2023/07/23 06:54:38;;;;;;;4.97;2.65;;;;;;;34.07;85.43;98141.81;4841001;29;20053;-65
2023/07/23 06:57:07;;;;;;;4.05;2.72;;;;;;;33.71;83.43;98132.00;4828638;29;20051;-66
2023/07/23 06:59:37;;;;;;;3.22;2.63;;;;;;;33.75;87.37;98134.81;4824457;29;20612;-66
2023/07/23 07:02:07;;;;;;;4.03;3.00;;;;;;;33.82;82.52;98132.22;4812904;29;20053;-67
2023/07/23 07:04:37;;;;;;;7.75;2.70;;;;;;;33.92;82.29;98128.91;4838640;29;20049;-65
2023/07/23 07:07:06;;;;;;;3.60;2.88;;;;;;;34.04;80.49;98117.78;4825871;29;20071;-65
2023/07/23 07:09:36;;;;;;;3.03;2.78;;;;;;;34.23;84.12;98108.78;4816840;29;20054;-63
2023/07/23 07:12:06;;;;;;;4.40;2.50;;;;;;;34.35;88.17;98113.31;4840205;29;20053;-65
2023/07/23 07:14:35;;;;;;;4.00;2.53;;;;;;;34.39;81.77;98112.22;4823994;29;20118;-65
2023/07/23 07:17:05;;;;;;;2.97;2.70;;;;;;;34.03;80.62;98109.91;4823104;29;20081;-63
2023/07/23 07:19:34;;;;;;;2.63;2.42;;;;;;;33.98;79.92;98108.25;4821250;29;20518;-65
2023/07/23 07:22:04;;;;;;;8.15;2.88;;;;;;;34.19;81.27;98107.91;4827839;29;20046;-67
2023/07/23 07:24:34;;;;;;;3.80;2.40;;;;;;;34.14;78.85;98113.66;4808489;29;20144;-65
2023/07/23 07:27:09;;;;;;;6.93;3.08;;;;;;;34.18;78.89;98107.09;4827242;29;20068;-63
2023/07/23 07:29:41;;;;;;;3.95;2.85;;;;;;;34.10;79.63;98093.56;4817801;29;20605;-62
2023/07/23 07:32:11;;;;;;;3.78;2.88;;;;;;;34.19;82.33;98102.41;4837609;29;20045;-63
2023/07/23 07:34:41;;;;;;;5.80;2.83;;;;;;;34.29;80.26;98096.34;4834711;29;20050;-65
2023/07/23 07:37:10;;;;;;;3.63;2.80;;;;;;;34.16;78.43;98097.63;4834760;29;20054;-65
2023/07/23 07:39:41;;;;;;;4.07;3.28;;;;;;;34.36;81.38;98099.22;4836171;29;20708;-64
2023/07/23 07:42:10;;;;;;;5.22;3.28;;;;;;;34.31;82.06;98082.22;4838473;29;20065;-66
2023/07/23 07:44:39;;;;;;;3.83;2.90;;;;;;;33.99;80.04;98081.56;4822319;29;20049;-64
2023/07/23 07:47:10;;;;;;;4.70;2.97;;;;;;;33.98;80.19;98077.22;4838062;29;20056;-64
2023/07/23 07:49:40;;;;;;;13.02;4.22;;;;;;;34.02;82.58;98069.84;4821515;29;20054;-65
2023/07/23 07:52:11;;;;;;;4.97;3.03;;;;;;;34.06;78.34;98067.94;4823395;29;20864;-65
2023/07/23 07:54:41;;;;;;;5.43;2.70;;;;;;;33.68;75.30;98071.50;4835903;29;20049;-66
2023/07/23 07:57:11;;;;;;;2.92;2.72;;;;;;;33.62;77.02;98067.38;4816682;29;20077;-69
2023/07/23 07:59:41;;;;;;;3.85;2.20;;;;;;;33.51;77.26;98060.84;4837985;29;20145;-65
2023/07/23 08:02:11;;;;;;;4.57;2.42;;;;;;;33.61;75.80;98063.84;4820198;29;20065;-63
2023/07/23 08:04:42;;;;;;;4.97;2.60;;;;;;;33.76;79.36;98048.50;4832868;29;20095;-66
2023/07/23 08:07:13;;;;;;;4.43;2.60;;;;;;;33.75;77.86;98044.16;4836434;29;20049;-65
2023/07/23 08:09:43;;;;;;;3.20;2.65;;;;;;;33.84;78.90;98048.28;4821435;29;20057;-66
2023/07/23 08:12:15;;;;;;;3.70;2.60;;;;;;;33.75;78.61;98039.47;4838028;29;20423;-64
2023/07/23 08:14:46;;;;;;;5.60;2.60;;;;;;;33.88;81.73;98040.09;4831741;29;20053;-65
2023/07/23 08:17:15;;;;;;;5.43;2.53;;;;;;;33.86;78.47;98028.66;4840865;29;20057;-64
2023/07/23 08:19:45;;;;;;;3.72;2.72;;;;;;;33.72;80.62;98023.69;4824519;29;20144;-65
2023/07/23 08:22:15;;;;;;;5.03;2.58;;;;;;;33.63;78.40;98025.03;4823913;29;20064;-65
2023/07/23 08:24:45;;;;;;;6.75;2.70;;;;;;;33.67;81.77;98025.94;4839167;29;20148;-66
2023/07/23 08:27:21;;;;;;;3.10;2.72;;;;;;;33.76;80.82;98023.78;4838205;29;20068;-65
2023/07/23 08:29:51;;;;;;;5.85;2.50;;;;;;;33.67;78.43;98015.75;4824892;29;20781;-65
2023/07/23 08:32:22;;;;;;;3.60;2.40;;;;;;;33.70;78.27;98008.72;4834861;29;20054;-67
2023/07/23 08:34:52;;;;;;;3.33;2.50;;;;;;;33.62;78.59;98007.75;4832738;29;20069;-67
2023/07/23 08:37:24;;;;;;;6.17;2.57;;;;;;;33.79;80.68;97999.13;4831319;29;20060;-67
2023/07/23 08:39:53;;;;;;;3.60;2.67;;;;;;;33.80;77.23;97997.97;4834152;29;20050;-67
2023/07/23 08:42:53;;;;;;;2.78;2.55;;;;;;;33.75;74.91;98006.50;4819080;29;20053;-69
2023/07/23 08:45:44;;;;;;;4.75;2.50;;;;;;;33.73;82.59;97997.81;4835382;29;20948;-65
2023/07/23 08:48:19;;;;;;;3.03;2.60;;;;;;;33.65;80.48;97989.75;4836933;29;20061;-64
2023/07/23 08:50:52;;;;;;;2.60;2.40;;;;;;;33.57;75.92;97994.31;4830760;29;20442;-66
2023/07/23 08:53:24;;;;;;;3.17;2.53;;;;;;;33.64;77.89;97977.97;4819343;29;20475;-65
2023/07/23 08:55:54;;;;;;;2.92;2.40;;;;;;;33.66;78.15;97975.69;4833911;29;20065;-68
2023/07/23 08:58:23;;;;;;;2.28;2.17;;;;;;;33.75;81.61;97975.47;4817332;29;20152;-68
2023/07/23 09:00:52;;;;;;;4.70;2.35;;;;;;;33.65;80.71;97970.53;4817630;29;20141;-64
2023/07/23 09:03:22;;;;;;;4.15;2.70;;;;;;;33.61;79.55;97964.16;4838596;29;20064;-66
2023/07/23 09:05:51;;;;;;;4.40;3.13;;;;;;;33.64;82.33;97960.69;4819913;29;20050;-66
2023/07/23 09:08:21;;;;;;;4.07;2.90;;;;;;;33.59;82.54;97961.75;4820014;29;20137;-65
2023/07/23 09:10:50;;;;;;;4.38;3.15;;;;;;;33.32;83.05;97960.84;4834165;29;20163;-66
2023/07/23 09:13:20;;;;;;;6.78;2.88;;;;;;;33.22;80.21;97955.09;4819739;29;20050;-66
2023/07/23 09:15:55;;;;;;;3.15;2.85;;;;;;;33.13;80.75;97955.28;4835274;29;20068;-66
2023/07/23 09:18:28;;;;;;;5.72;2.90;;;;;;;33.24;84.00;97944.53;4817765;29;20156;-66
2023/07/23 09:20:58;;;;;;;5.93;2.90;;;;;;;33.32;84.41;97949.06;4836302;29;20061;-66
2023/07/23 09:23:28;;;;;;;9.80;4.13;;;;;;;33.34;82.25;97946.72;4819152;29;20045;-66
2023/07/23 09:26:00;;;;;;;8.35;4.13;;;;;;;33.39;82.04;97940.97;4813532;29;20064;-66
2023/07/23 09:28:29;;;;;;;3.78;2.58;;;;;;;33.40;81.39;97931.56;4814749;29;20053;-66
2023/07/23 09:30:59;;;;;;;3.80;3.05;;;;;;;33.45;82.93;97925.00;4834879;29;20121;-66
2023/07/23 09:33:34;;;;;;;5.93;2.70;;;;;;;33.46;81.21;97921.88;4833032;29;20073;-66
2023/07/23 09:36:05;;;;;;;4.00;2.67;;;;;;;33.49;82.34;97921.16;4833467;29;20056;-65
2023/07/23 09:38:35;;;;;;;3.15;2.80;;;;;;;33.45;80.66;97908.53;4833957;29;20085;-66
2023/07/23 09:41:04;;;;;;;5.57;3.00;;;;;;;33.43;83.71;97914.38;4831435;29;20050;-66
2023/07/23 09:43:34;;;;;;;2.83;2.47;;;;;;;33.37;81.72;97913.84;4836148;29;20053;-66
2023/07/23 09:46:04;;;;;;;3.42;2.38;;;;;;;33.35;79.80;97909.88;4836719;29;20684;-66
2023/07/23 09:48:33;;;;;;;3.40;2.60;;;;;;;33.44;82.94;97913.22;4837081;29;20149;-66
2023/07/23 09:51:03;;;;;;;2.80;2.50;;;;;;;33.50;79.45;97898.06;4835625;29;20061;-66
2023/07/23 09:53:33;;;;;;;3.42;2.67;;;;;;;33.49;80.05;97899.19;4804918;29;20527;-66
2023/07/23 09:56:03;;;;;;;5.60;2.67;;;;;;;33.57;81.00;97898.19;4809369;29;20061;-67
2023/07/23 09:58:35;;;;;;;3.47;2.53;;;;;;;33.61;80.97;97895.50;4818110;29;20680;-67
2023/07/23 10:01:06;;;;;;;2.58;2.30;;;;;;;33.60;79.91;97888.41;4833870;29;20052;-67
2023/07/23 10:03:37;;;;;;;2.70;2.50;;;;;;;33.60;80.68;97889.19;4820722;29;20062;-67
2023/07/23 10:06:11;;;;;;;3.15;2.35;;;;;;;33.62;76.54;97891.59;4815425;29;20489;-66
2023/07/23 10:08:43;;;;;;;7.70;2.42;;;;;;;33.63;76.73;97888.50;4816739;29;20234;-67
2023/07/23 10:11:14;;;;;;;2.53;2.33;;;;;;;33.66;78.13;97878.75;4834286;29;20164;-67
2023/07/23 10:13:47;;;;;;;6.07;2.20;;;;;;;33.65;77.05;97869.69;4487201;29;9999905;-64
2023/07/23 10:16:33;;;;;;;3.08;2.00;;;;;;;33.62;76.42;97867.66;4826872;29;20054;-64
2023/07/23 10:19:05;;;;;;;7.10;2.40;;;;;;;33.67;77.54;97874.84;4833185;29;20054;-65
2023/07/23 10:21:36;;;;;;;2.40;2.20;;;;;;;33.70;76.16;97876.88;4833542;29;20817;-64
2023/07/23 10:24:06;;;;;;;4.30;2.00;;;;;;;33.63;73.46;97861.03;4838460;29;20058;-65
2023/07/23 10:26:46;;;;;;;2.75;1.77;;;;;;;33.63;75.30;97861.03;4826371;29;20514;-64
2023/07/23 10:29:21;;;;;;;3.08;2.20;;;;;;;33.61;74.86;97857.84;4818626;29;20129;-65
2023/07/23 10:31:56;;;;;;;2.53;2.30;;;;;;;33.67;80.39;97859.16;4834756;29;20049;-66
2023/07/23 10:34:26;;;;;;;4.40;2.40;;;;;;;33.64;78.22;97853.56;4816027;29;20125;-65
2023/07/23 10:37:21;;;;;;;2.55;2.35;;;;;;;33.62;79.45;97837.47;4819219;29;20714;-66
2023/07/23 10:39:55;;;;;;;2.40;2.05;;;;;;;33.65;79.38;97833.97;4833709;29;20209;-65
2023/07/23 10:42:28;;;;;;;2.38;1.95;;;;;;;33.67;77.79;97836.41;4834174;29;20501;-68
2023/07/23 10:45:28;;;;;;;2.55;2.35;;;;;;;33.63;78.62;97830.81;4823456;29;20050;-66
2023/07/23 10:48:00;;;;;;;3.58;2.20;;;;;;;33.64;76.31;97828.84;4834784;29;20084;-68
2023/07/23 10:50:33;;;;;;;4.38;2.13;;;;;;;33.65;74.74;97828.47;4821368;29;20064;-66
2023/07/23 10:53:04;;;;;;;2.70;2.50;;;;;;;33.63;77.41;97827.28;4816408;29;20057;-66
2023/07/23 10:55:45;;;;;;;3.95;2.10;;;;;;;33.67;79.46;97822.66;4834512;29;20356;-68
2023/07/23 10:58:18;;;;;;;3.20;2.22;;;;;;;33.68;78.23;97810.53;4820885;29;20132;-66
2023/07/23 11:00:53;;;;;;;2.58;2.30;;;;;;;33.67;75.52;97819.91;4836736;29;20907;-64
2023/07/23 11:03:24;;;;;;;2.55;2.35;;;;;;;33.60;76.96;97809.56;4832657;29;20145;-65
2023/07/23 11:05:54;;;;;;;5.00;2.33;;;;;;;33.56;77.05;97811.44;4815845;29;20061;-65
2023/07/23 11:08:26;;;;;;;4.28;2.42;;;;;;;33.56;76.67;97810.66;4834566;29;20538;-65
2023/07/23 11:11:01;;;;;;;3.38;2.47;;;;;;;33.47;78.69;97799.91;4833592;29;20550;-64
2023/07/23 11:13:35;;;;;;;5.85;2.22;;;;;;;33.46;77.51;97797.53;4815568;29;20652;-66
2023/07/23 11:16:06;;;;;;;3.05;2.20;;;;;;;33.45;78.76;97794.00;4832548;29;20190;-67
2023/07/23 11:18:35;;;;;;;4.93;2.20;;;;;;;33.40;76.93;97797.81;4817923;29;20054;-65
2023/07/23 11:21:06;;;;;;;4.80;2.58;;;;;;;33.37;80.42;97797.78;4830954;29;20537;-65
2023/07/23 11:23:36;;;;;;;3.50;2.38;;;;;;;33.36;79.61;97796.19;4837997;29;20053;-62
2023/07/23 11:26:05;;;;;;;3.28;2.45;;;;;;;33.36;77.41;97787.94;4840433;29;20534;-66
2023/07/23 11:28:34;;;;;;;2.67;2.42;;;;;;;33.35;78.88;97786.34;4817482;29;20132;-66
2023/07/23 11:31:05;;;;;;;2.40;2.20;;;;;;;33.35;78.03;97786.34;4829906;29;20061;-65
2023/07/23 11:33:35;;;;;;;5.43;2.30;;;;;;;33.30;77.93;97784.69;4835906;29;20068;-67
2023/07/23 11:36:05;;;;;;;4.65;2.55;;;;;;;33.27;76.98;97777.19;4820537;29;20198;-65
2023/07/23 11:38:34;;;;;;;5.35;2.70;;;;;;;33.30;79.69;97768.22;4837628;29;20086;-65
2023/07/23 11:41:04;;;;;;;3.35;2.78;;;;;;;33.27;78.92;97759.91;4838369;29;20061;-67
2023/07/23 11:43:34;;;;;;;2.80;2.50;;;;;;;33.25;78.62;97762.22;4837383;29;20058;-66
2023/07/23 11:46:04;;;;;;;5.00;2.40;;;;;;;33.21;79.07;97755.88;4836580;29;20065;-66